sensor_id;sensor_type;location;lat;lon;timestamp;P1;durP1;ratioP1;P2;durP2;ratioP2
38427;SDS011;24211;49.980;19.776;2023-03-01T00:01:44;57.67;;;23.10;;
38427;SDS011;24211;49.980;19.776;2023-03-01T00:04:11;58.15;;;22.20;;
38427;SDS011;24211;49.980;19.776;2023-03-01T00:06:39;56.78;;;21.80;;
38427;SDS011;24211;49.980;19.776;2023-03-01T00:09:08;52.40;;;21.00;;
38427;SDS011;24211;49.980;19.776;2023-03-01T00:11:35;51.65;;;20.20;;
38427;SDS011;24211;49.980;19.776;2023-03-01T00:17:06;51.78;;;19.52;;
38427;SDS011;24211;49.980;19.776;2023-03-01T00:19:34;50.25;;;19.30;;
38427;SDS011;24211;49.980;19.776;2023-03-01T00:22:01;51.20;;;18.60;;
38427;SDS011;24211;49.980;19.776;2023-03-01T00:24:28;49.20;;;20.75;;
38427;SDS011;24211;49.980;19.776;2023-03-01T00:26:55;51.70;;;20.70;;
38427;SDS011;24211;49.980;19.776;2023-03-01T00:29:26;54.50;;;20.42;;
38427;SDS011;24211;49.980;19.776;2023-03-01T00:31:54;58.70;;;22.40;;
38427;SDS011;24211;49.980;19.776;2023-03-01T00:34:21;54.05;;;21.83;;
38427;SDS011;24211;49.980;19.776;2023-03-01T00:36:48;52.13;;;20.50;;
38427;SDS011;24211;49.980;19.776;2023-03-01T00:39:15;53.50;;;21.15;;
38427;SDS011;24211;49.980;19.776;2023-03-01T00:41:43;50.28;;;20.20;;
38427;SDS011;24211;49.980;19.776;2023-03-01T00:44:15;52.92;;;21.42;;
38427;SDS011;24211;49.980;19.776;2023-03-01T00:46:42;55.65;;;21.20;;
38427;SDS011;24211;49.980;19.776;2023-03-01T00:55:57;54.00;;;21.15;;
38427;SDS011;24211;49.980;19.776;2023-03-01T01:02:04;59.75;;;21.17;;
38427;SDS011;24211;49.980;19.776;2023-03-01T01:04:31;58.65;;;22.02;;
38427;SDS011;24211;49.980;19.776;2023-03-01T01:06:58;58.63;;;21.95;;
38427;SDS011;24211;49.980;19.776;2023-03-01T01:09:26;54.65;;;22.10;;
38427;SDS011;24211;49.980;19.776;2023-03-01T01:11:53;57.22;;;22.15;;
38427;SDS011;24211;49.980;19.776;2023-03-01T01:14:20;51.90;;;21.65;;
38427;SDS011;24211;49.980;19.776;2023-03-01T01:20:05;50.72;;;20.13;;
38427;SDS011;24211;49.980;19.776;2023-03-01T01:22:34;53.35;;;20.77;;
38427;SDS011;24211;49.980;19.776;2023-03-01T01:25:01;54.75;;;20.65;;
38427;SDS011;24211;49.980;19.776;2023-03-01T01:27:29;54.63;;;20.63;;
38427;SDS011;24211;49.980;19.776;2023-03-01T01:29:56;52.13;;;19.13;;
38427;SDS011;24211;49.980;19.776;2023-03-01T01:39:39;48.38;;;19.45;;
38427;SDS011;24211;49.980;19.776;2023-03-01T01:42:06;49.03;;;19.60;;
38427;SDS011;24211;49.980;19.776;2023-03-01T01:47:57;58.95;;;21.80;;
38427;SDS011;24211;49.980;19.776;2023-03-01T01:50:32;60.95;;;22.63;;
38427;SDS011;24211;49.980;19.776;2023-03-01T01:53:09;60.92;;;22.23;;
38427;SDS011;24211;49.980;19.776;2023-03-01T02:01:35;57.78;;;22.23;;
38427;SDS011;24211;49.980;19.776;2023-03-01T02:04:09;60.33;;;24.33;;
38427;SDS011;24211;49.980;19.776;2023-03-01T02:09:48;73.93;;;27.05;;
38427;SDS011;24211;49.980;19.776;2023-03-01T02:12:20;76.20;;;27.50;;
38427;SDS011;24211;49.980;19.776;2023-03-01T02:14:51;72.38;;;27.40;;
38427;SDS011;24211;49.980;19.776;2023-03-01T02:17:18;65.38;;;25.30;;
38427;SDS011;24211;49.980;19.776;2023-03-01T02:22:57;60.22;;;23.30;;
38427;SDS011;24211;49.980;19.776;2023-03-01T02:25:31;65.85;;;24.20;;
38427;SDS011;24211;49.980;19.776;2023-03-01T02:28:31;59.05;;;22.50;;
38427;SDS011;24211;49.980;19.776;2023-03-01T02:31:02;55.80;;;22.40;;
38427;SDS011;24211;49.980;19.776;2023-03-01T02:35:03;60.35;;;23.05;;
38427;SDS011;24211;49.980;19.776;2023-03-01T02:37:33;58.72;;;22.35;;
38427;SDS011;24211;49.980;19.776;2023-03-01T02:40:04;53.05;;;22.38;;
38427;SDS011;24211;49.980;19.776;2023-03-01T02:42:43;59.67;;;21.95;;
38427;SDS011;24211;49.980;19.776;2023-03-01T02:45:22;61.55;;;23.05;;
38427;SDS011;24211;49.980;19.776;2023-03-01T02:47:53;67.93;;;24.05;;
38427;SDS011;24211;49.980;19.776;2023-03-01T02:53:01;65.50;;;24.30;;
38427;SDS011;24211;49.980;19.776;2023-03-01T02:55:59;70.00;;;25.35;;
38427;SDS011;24211;49.980;19.776;2023-03-01T02:58:29;69.67;;;25.70;;
38427;SDS011;24211;49.980;19.776;2023-03-01T03:00:59;67.22;;;24.85;;
38427;SDS011;24211;49.980;19.776;2023-03-01T03:03:28;65.65;;;25.15;;
38427;SDS011;24211;49.980;19.776;2023-03-01T03:05:55;65.87;;;26.43;;
38427;SDS011;24211;49.980;19.776;2023-03-01T03:08:22;71.17;;;27.17;;
38427;SDS011;24211;49.980;19.776;2023-03-01T03:10:51;73.97;;;27.20;;
38427;SDS011;24211;49.980;19.776;2023-03-01T03:13:19;78.78;;;28.48;;
38427;SDS011;24211;49.980;19.776;2023-03-01T03:15:48;65.57;;;25.58;;
38427;SDS011;24211;49.980;19.776;2023-03-01T03:18:16;66.97;;;26.10;;
38427;SDS011;24211;49.980;19.776;2023-03-01T03:20:43;69.80;;;26.88;;
38427;SDS011;24211;49.980;19.776;2023-03-01T03:23:12;69.20;;;24.88;;
38427;SDS011;24211;49.980;19.776;2023-03-01T03:25:40;67.15;;;25.77;;
38427;SDS011;24211;49.980;19.776;2023-03-01T03:28:13;67.72;;;24.95;;
38427;SDS011;24211;49.980;19.776;2023-03-01T03:30:42;62.80;;;24.85;;
38427;SDS011;24211;49.980;19.776;2023-03-01T03:36:46;62.55;;;23.58;;
38427;SDS011;24211;49.980;19.776;2023-03-01T03:39:13;64.80;;;23.65;;
38427;SDS011;24211;49.980;19.776;2023-03-01T03:41:40;60.80;;;23.63;;
38427;SDS011;24211;49.980;19.776;2023-03-01T03:44:07;59.67;;;23.73;;
38427;SDS011;24211;49.980;19.776;2023-03-01T03:46:34;59.53;;;23.27;;
38427;SDS011;24211;49.980;19.776;2023-03-01T03:49:02;61.43;;;22.43;;
38427;SDS011;24211;49.980;19.776;2023-03-01T03:51:29;59.60;;;23.33;;
38427;SDS011;24211;49.980;19.776;2023-03-01T03:53:56;55.60;;;21.92;;
38427;SDS011;24211;49.980;19.776;2023-03-01T03:56:23;61.72;;;22.65;;
38427;SDS011;24211;49.980;19.776;2023-03-01T03:58:55;65.57;;;23.23;;
38427;SDS011;24211;49.980;19.776;2023-03-01T04:01:22;66.60;;;24.35;;
38427;SDS011;24211;49.980;19.776;2023-03-01T04:03:49;63.17;;;23.23;;
38427;SDS011;24211;49.980;19.776;2023-03-01T04:06:20;69.28;;;25.73;;
38427;SDS011;24211;49.980;19.776;2023-03-01T04:08:48;65.00;;;24.98;;
38427;SDS011;24211;49.980;19.776;2023-03-01T04:11:17;63.47;;;24.87;;
38427;SDS011;24211;49.980;19.776;2023-03-01T04:13:54;76.50;;;26.75;;
38427;SDS011;24211;49.980;19.776;2023-03-01T04:16:24;72.20;;;26.63;;
38427;SDS011;24211;49.980;19.776;2023-03-01T04:18:52;73.32;;;26.63;;
38427;SDS011;24211;49.980;19.776;2023-03-01T04:21:19;75.50;;;27.90;;
38427;SDS011;24211;49.980;19.776;2023-03-01T04:23:47;74.03;;;27.88;;
38427;SDS011;24211;49.980;19.776;2023-03-01T04:26:14;81.88;;;29.95;;
38427;SDS011;24211;49.980;19.776;2023-03-01T04:28:42;75.28;;;29.35;;
38427;SDS011;24211;49.980;19.776;2023-03-01T04:31:13;85.85;;;30.00;;
38427;SDS011;24211;49.980;19.776;2023-03-01T04:33:51;89.28;;;30.55;;
38427;SDS011;24211;49.980;19.776;2023-03-01T04:36:22;82.35;;;28.45;;
38427;SDS011;24211;49.980;19.776;2023-03-01T04:38:53;71.47;;;27.63;;
38427;SDS011;24211;49.980;19.776;2023-03-01T04:41:22;76.47;;;27.65;;
38427;SDS011;24211;49.980;19.776;2023-03-01T04:43:52;65.07;;;26.35;;
38427;SDS011;24211;49.980;19.776;2023-03-01T04:46:20;69.03;;;26.77;;
38427;SDS011;24211;49.980;19.776;2023-03-01T04:48:48;72.85;;;26.20;;
38427;SDS011;24211;49.980;19.776;2023-03-01T04:51:15;69.53;;;25.10;;
38427;SDS011;24211;49.980;19.776;2023-03-01T04:53:44;63.67;;;24.02;;
38427;SDS011;24211;49.980;19.776;2023-03-01T04:56:12;68.78;;;24.80;;
38427;SDS011;24211;49.980;19.776;2023-03-01T04:58:40;64.57;;;24.05;;
38427;SDS011;24211;49.980;19.776;2023-03-01T05:01:11;63.28;;;24.42;;
38427;SDS011;24211;49.980;19.776;2023-03-01T05:03:43;59.40;;;23.85;;
38427;SDS011;24211;49.980;19.776;2023-03-01T05:06:11;63.08;;;23.98;;
38427;SDS011;24211;49.980;19.776;2023-03-01T05:08:39;61.17;;;23.10;;
38427;SDS011;24211;49.980;19.776;2023-03-01T05:15:14;57.35;;;21.95;;
38427;SDS011;24211;49.980;19.776;2023-03-01T05:17:41;65.55;;;23.23;;
38427;SDS011;24211;49.980;19.776;2023-03-01T05:20:10;65.30;;;22.80;;
38427;SDS011;24211;49.980;19.776;2023-03-01T05:22:37;63.40;;;22.35;;
38427;SDS011;24211;49.980;19.776;2023-03-01T05:25:05;60.60;;;22.83;;
38427;SDS011;24211;49.980;19.776;2023-03-01T05:27:34;58.27;;;22.03;;
38427;SDS011;24211;49.980;19.776;2023-03-01T05:30:02;62.87;;;22.33;;
38427;SDS011;24211;49.980;19.776;2023-03-01T05:32:49;60.50;;;22.23;;
38427;SDS011;24211;49.980;19.776;2023-03-01T05:45:23;56.25;;;21.58;;
38427;SDS011;24211;49.980;19.776;2023-03-01T05:47:53;57.00;;;20.95;;
38427;SDS011;24211;49.980;19.776;2023-03-01T05:50:22;56.70;;;20.63;;
38427;SDS011;24211;49.980;19.776;2023-03-01T05:53:02;56.28;;;21.30;;
38427;SDS011;24211;49.980;19.776;2023-03-01T05:55:36;58.77;;;23.13;;
38427;SDS011;24211;49.980;19.776;2023-03-01T06:01:48;64.47;;;24.20;;
38427;SDS011;24211;49.980;19.776;2023-03-01T06:04:16;70.53;;;25.48;;
38427;SDS011;24211;49.980;19.776;2023-03-01T06:06:43;66.70;;;25.25;;
38427;SDS011;24211;49.980;19.776;2023-03-01T06:09:10;69.00;;;25.02;;
38427;SDS011;24211;49.980;19.776;2023-03-01T06:11:37;70.60;;;26.33;;
38427;SDS011;24211;49.980;19.776;2023-03-01T06:14:05;65.28;;;24.80;;
38427;SDS011;24211;49.980;19.776;2023-03-01T06:16:34;73.07;;;26.07;;
38427;SDS011;24211;49.980;19.776;2023-03-01T06:19:01;69.60;;;25.13;;
38427;SDS011;24211;49.980;19.776;2023-03-01T06:21:30;67.67;;;25.70;;
38427;SDS011;24211;49.980;19.776;2023-03-01T06:23:57;69.60;;;25.03;;
38427;SDS011;24211;49.980;19.776;2023-03-01T06:26:24;68.50;;;25.10;;
38427;SDS011;24211;49.980;19.776;2023-03-01T06:28:51;66.50;;;25.33;;
38427;SDS011;24211;49.980;19.776;2023-03-01T06:31:18;66.37;;;25.50;;
38427;SDS011;24211;49.980;19.776;2023-03-01T06:33:45;61.63;;;23.70;;
38427;SDS011;24211;49.980;19.776;2023-03-01T06:36:12;56.60;;;23.27;;
38427;SDS011;24211;49.980;19.776;2023-03-01T06:38:39;65.20;;;23.25;;
38427;SDS011;24211;49.980;19.776;2023-03-01T06:41:07;62.08;;;22.80;;
38427;SDS011;24211;49.980;19.776;2023-03-01T06:43:34;61.50;;;24.20;;
38427;SDS011;24211;49.980;19.776;2023-03-01T06:46:05;67.97;;;23.53;;
38427;SDS011;24211;49.980;19.776;2023-03-01T06:48:33;57.15;;;23.00;;
38427;SDS011;24211;49.980;19.776;2023-03-01T06:51:03;61.55;;;23.77;;
38427;SDS011;24211;49.980;19.776;2023-03-01T06:53:30;66.45;;;24.15;;
38427;SDS011;24211;49.980;19.776;2023-03-01T06:55:58;57.47;;;22.25;;
38427;SDS011;24211;49.980;19.776;2023-03-01T06:58:26;60.37;;;22.37;;
38427;SDS011;24211;49.980;19.776;2023-03-01T07:05:02;56.42;;;21.42;;
38427;SDS011;24211;49.980;19.776;2023-03-01T07:07:30;58.67;;;22.95;;
38427;SDS011;24211;49.980;19.776;2023-03-01T07:09:57;59.13;;;22.88;;
38427;SDS011;24211;49.980;19.776;2023-03-01T07:12:24;59.05;;;23.77;;
38427;SDS011;24211;49.980;19.776;2023-03-01T07:14:52;65.22;;;23.70;;
38427;SDS011;24211;49.980;19.776;2023-03-01T07:17:19;64.85;;;24.13;;
38427;SDS011;24211;49.980;19.776;2023-03-01T07:19:46;60.00;;;23.38;;
38427;SDS011;24211;49.980;19.776;2023-03-01T07:22:14;61.13;;;23.38;;
38427;SDS011;24211;49.980;19.776;2023-03-01T07:24:42;62.17;;;22.77;;
38427;SDS011;24211;49.980;19.776;2023-03-01T07:27:10;58.08;;;22.42;;
38427;SDS011;24211;49.980;19.776;2023-03-01T07:30:38;54.58;;;21.63;;
38427;SDS011;24211;49.980;19.776;2023-03-01T07:33:07;59.67;;;21.98;;
38427;SDS011;24211;49.980;19.776;2023-03-01T07:35:34;55.88;;;21.73;;
38427;SDS011;24211;49.980;19.776;2023-03-01T07:38:01;59.67;;;21.58;;
38427;SDS011;24211;49.980;19.776;2023-03-01T07:40:29;50.47;;;20.05;;
38427;SDS011;24211;49.980;19.776;2023-03-01T07:42:57;51.40;;;20.50;;
38427;SDS011;24211;49.980;19.776;2023-03-01T07:45:29;53.35;;;20.90;;
38427;SDS011;24211;49.980;19.776;2023-03-01T07:47:56;48.42;;;19.88;;
38427;SDS011;24211;49.980;19.776;2023-03-01T07:50:25;52.47;;;20.73;;
38427;SDS011;24211;49.980;19.776;2023-03-01T07:52:55;51.47;;;20.23;;
38427;SDS011;24211;49.980;19.776;2023-03-01T07:55:22;54.17;;;21.08;;
38427;SDS011;24211;49.980;19.776;2023-03-01T07:57:49;45.92;;;19.75;;
38427;SDS011;24211;49.980;19.776;2023-03-01T08:00:17;50.22;;;19.35;;
38427;SDS011;24211;49.980;19.776;2023-03-01T08:02:44;59.95;;;22.85;;
38427;SDS011;24211;49.980;19.776;2023-03-01T08:05:11;52.50;;;21.35;;
38427;SDS011;24211;49.980;19.776;2023-03-01T08:07:39;53.88;;;22.00;;
38427;SDS011;24211;49.980;19.776;2023-03-01T08:10:06;72.30;;;26.85;;
38427;SDS011;24211;49.980;19.776;2023-03-01T08:12:34;57.15;;;22.77;;
38427;SDS011;24211;49.980;19.776;2023-03-01T08:15:02;60.05;;;23.67;;
38427;SDS011;24211;49.980;19.776;2023-03-01T08:17:33;58.03;;;23.65;;
38427;SDS011;24211;49.980;19.776;2023-03-01T08:20:02;62.17;;;23.67;;
38427;SDS011;24211;49.980;19.776;2023-03-01T08:22:33;62.40;;;24.60;;
38427;SDS011;24211;49.980;19.776;2023-03-01T08:25:01;56.75;;;23.20;;
38427;SDS011;24211;49.980;19.776;2023-03-01T08:27:29;66.72;;;24.98;;
38427;SDS011;24211;49.980;19.776;2023-03-01T08:29:56;55.47;;;24.17;;
38427;SDS011;24211;49.980;19.776;2023-03-01T08:32:23;63.78;;;24.75;;
38427;SDS011;24211;49.980;19.776;2023-03-01T08:34:50;64.63;;;24.42;;
38427;SDS011;24211;49.980;19.776;2023-03-01T08:37:17;58.08;;;23.05;;
38427;SDS011;24211;49.980;19.776;2023-03-01T08:39:44;56.92;;;23.27;;
38427;SDS011;24211;49.980;19.776;2023-03-01T08:42:13;55.67;;;23.05;;
38427;SDS011;24211;49.980;19.776;2023-03-01T08:44:40;58.58;;;21.90;;
38427;SDS011;24211;49.980;19.776;2023-03-01T08:47:08;55.92;;;21.65;;
38427;SDS011;24211;49.980;19.776;2023-03-01T08:49:35;50.33;;;21.88;;
38427;SDS011;24211;49.980;19.776;2023-03-01T08:52:02;53.63;;;21.10;;
38427;SDS011;24211;49.980;19.776;2023-03-01T08:54:29;50.63;;;20.40;;
38427;SDS011;24211;49.980;19.776;2023-03-01T08:56:57;47.75;;;18.92;;
38427;SDS011;24211;49.980;19.776;2023-03-01T08:59:25;43.75;;;18.55;;
38427;SDS011;24211;49.980;19.776;2023-03-01T09:01:53;45.17;;;18.77;;
38427;SDS011;24211;49.980;19.776;2023-03-01T09:04:20;45.30;;;19.88;;
38427;SDS011;24211;49.980;19.776;2023-03-01T09:06:48;40.78;;;17.75;;
38427;SDS011;24211;49.980;19.776;2023-03-01T09:09:15;35.97;;;16.65;;
38427;SDS011;24211;49.980;19.776;2023-03-01T09:11:44;40.28;;;16.88;;
38427;SDS011;24211;49.980;19.776;2023-03-01T09:14:13;37.42;;;16.13;;
38427;SDS011;24211;49.980;19.776;2023-03-01T09:16:40;39.25;;;16.67;;
38427;SDS011;24211;49.980;19.776;2023-03-01T09:19:08;36.88;;;16.55;;
38427;SDS011;24211;49.980;19.776;2023-03-01T09:21:35;36.92;;;16.48;;
38427;SDS011;24211;49.980;19.776;2023-03-01T09:24:11;34.25;;;14.90;;
38427;SDS011;24211;49.980;19.776;2023-03-01T09:26:41;35.85;;;15.82;;
38427;SDS011;24211;49.980;19.776;2023-03-01T09:29:10;34.70;;;15.10;;
38427;SDS011;24211;49.980;19.776;2023-03-01T09:31:38;30.83;;;13.60;;
38427;SDS011;24211;49.980;19.776;2023-03-01T09:34:06;30.58;;;13.63;;
38427;SDS011;24211;49.980;19.776;2023-03-01T09:36:34;27.90;;;12.73;;
38427;SDS011;24211;49.980;19.776;2023-03-01T09:42:27;25.50;;;11.73;;
38427;SDS011;24211;49.980;19.776;2023-03-01T09:45:04;24.73;;;11.00;;
38427;SDS011;24211;49.980;19.776;2023-03-01T09:50:53;24.30;;;10.32;;
38427;SDS011;24211;49.980;19.776;2023-03-01T09:53:22;25.33;;;10.63;;
38427;SDS011;24211;49.980;19.776;2023-03-01T09:55:59;22.45;;;10.63;;
38427;SDS011;24211;49.980;19.776;2023-03-01T10:01:54;28.08;;;12.93;;
38427;SDS011;24211;49.980;19.776;2023-03-01T10:04:48;26.98;;;12.20;;
38427;SDS011;24211;49.980;19.776;2023-03-01T10:10:55;33.25;;;12.65;;
38427;SDS011;24211;49.980;19.776;2023-03-01T10:16:13;30.73;;;12.88;;
38427;SDS011;24211;49.980;19.776;2023-03-01T10:18:48;28.13;;;12.07;;
38427;SDS011;24211;49.980;19.776;2023-03-01T10:21:43;28.63;;;13.52;;
38427;SDS011;24211;49.980;19.776;2023-03-01T10:24:16;25.08;;;12.45;;
38427;SDS011;24211;49.980;19.776;2023-03-01T10:26:57;33.53;;;13.93;;
38427;SDS011;24211;49.980;19.776;2023-03-01T10:29:50;28.73;;;12.27;;
38427;SDS011;24211;49.980;19.776;2023-03-01T10:32:39;28.23;;;12.15;;
38427;SDS011;24211;49.980;19.776;2023-03-01T10:35:16;27.17;;;12.10;;
38427;SDS011;24211;49.980;19.776;2023-03-01T10:37:58;27.95;;;12.05;;
38427;SDS011;24211;49.980;19.776;2023-03-01T10:40:49;25.05;;;11.85;;
38427;SDS011;24211;49.980;19.776;2023-03-01T10:43:26;24.92;;;11.05;;
38427;SDS011;24211;49.980;19.776;2023-03-01T10:46:21;25.17;;;11.45;;
38427;SDS011;24211;49.980;19.776;2023-03-01T10:49:18;25.10;;;10.43;;
38427;SDS011;24211;49.980;19.776;2023-03-01T10:51:49;24.52;;;10.52;;
38427;SDS011;24211;49.980;19.776;2023-03-01T10:54:21;21.60;;;9.63;;
38427;SDS011;24211;49.980;19.776;2023-03-01T10:57:01;22.63;;;10.50;;
38427;SDS011;24211;49.980;19.776;2023-03-01T10:59:33;22.50;;;10.35;;
38427;SDS011;24211;49.980;19.776;2023-03-01T11:02:14;24.08;;;10.23;;
38427;SDS011;24211;49.980;19.776;2023-03-01T11:10:34;23.50;;;10.43;;
38427;SDS011;24211;49.980;19.776;2023-03-01T11:13:07;20.50;;;9.70;;
38427;SDS011;24211;49.980;19.776;2023-03-01T11:16:03;18.13;;;8.93;;
38427;SDS011;24211;49.980;19.776;2023-03-01T11:18:39;19.27;;;8.68;;
38427;SDS011;24211;49.980;19.776;2023-03-01T11:21:15;22.35;;;9.77;;
38427;SDS011;24211;49.980;19.776;2023-03-01T11:23:42;19.85;;;9.10;;
38427;SDS011;24211;49.980;19.776;2023-03-01T11:26:13;22.45;;;9.60;;
38427;SDS011;24211;49.980;19.776;2023-03-01T11:28:45;20.70;;;9.20;;
38427;SDS011;24211;49.980;19.776;2023-03-01T11:31:28;20.63;;;8.90;;
38427;SDS011;24211;49.980;19.776;2023-03-01T11:34:02;19.88;;;8.80;;
38427;SDS011;24211;49.980;19.776;2023-03-01T11:36:51;17.80;;;8.32;;
38427;SDS011;24211;49.980;19.776;2023-03-01T11:45:34;20.98;;;9.00;;
38427;SDS011;24211;49.980;19.776;2023-03-01T11:52:03;20.30;;;9.30;;
38427;SDS011;24211;49.980;19.776;2023-03-01T11:54:27;21.45;;;10.55;;
38427;SDS011;24211;49.980;19.776;2023-03-01T12:19:51;21.58;;;9.25;;
38427;SDS011;24211;49.980;19.776;2023-03-01T12:36:30;18.58;;;9.63;;
38427;SDS011;24211;49.980;19.776;2023-03-01T12:39:51;21.73;;;9.20;;
38427;SDS011;24211;49.980;19.776;2023-03-01T12:42:48;21.15;;;9.20;;
38427;SDS011;24211;49.980;19.776;2023-03-01T12:48:40;28.75;;;12.25;;
38427;SDS011;24211;49.980;19.776;2023-03-01T12:51:37;17.55;;;8.43;;
38427;SDS011;24211;49.980;19.776;2023-03-01T12:54:11;22.77;;;8.85;;
38427;SDS011;24211;49.980;19.776;2023-03-01T12:56:48;19.27;;;8.65;;
38427;SDS011;24211;49.980;19.776;2023-03-01T12:59:31;17.02;;;7.88;;
38427;SDS011;24211;49.980;19.776;2023-03-01T13:02:24;17.48;;;7.80;;
38427;SDS011;24211;49.980;19.776;2023-03-01T13:08:24;17.10;;;7.85;;
38427;SDS011;24211;49.980;19.776;2023-03-01T13:14:45;21.20;;;9.13;;
38427;SDS011;24211;49.980;19.776;2023-03-01T13:17:29;15.35;;;6.90;;
38427;SDS011;24211;49.980;19.776;2023-03-01T13:19:59;36.55;;;14.38;;
38427;SDS011;24211;49.980;19.776;2023-03-01T13:22:29;26.67;;;12.82;;
38427;SDS011;24211;49.980;19.776;2023-03-01T13:25:10;32.58;;;13.50;;
38427;SDS011;24211;49.980;19.776;2023-03-01T13:27:45;22.40;;;9.13;;
38427;SDS011;24211;49.980;19.776;2023-03-01T13:35:54;17.95;;;8.27;;
38427;SDS011;24211;49.980;19.776;2023-03-01T13:38:37;23.08;;;10.20;;
38427;SDS011;24211;49.980;19.776;2023-03-01T13:41:14;19.83;;;9.25;;
38427;SDS011;24211;49.980;19.776;2023-03-01T13:46:53;20.17;;;9.77;;
38427;SDS011;24211;49.980;19.776;2023-03-01T13:49:57;21.35;;;8.82;;
38427;SDS011;24211;49.980;19.776;2023-03-01T13:52:32;19.77;;;9.05;;
38427;SDS011;24211;49.980;19.776;2023-03-01T13:57:44;21.48;;;9.20;;
38427;SDS011;24211;49.980;19.776;2023-03-01T14:00:27;21.10;;;9.10;;
38427;SDS011;24211;49.980;19.776;2023-03-01T14:03:01;26.42;;;12.23;;
38427;SDS011;24211;49.980;19.776;2023-03-01T14:05:40;31.98;;;13.48;;
38427;SDS011;24211;49.980;19.776;2023-03-01T14:08:21;17.45;;;8.38;;
38427;SDS011;24211;49.980;19.776;2023-03-01T14:19:29;21.23;;;9.68;;
38427;SDS011;24211;49.980;19.776;2023-03-01T14:22:20;21.55;;;9.52;;
38427;SDS011;24211;49.980;19.776;2023-03-01T14:27:35;33.42;;;13.93;;
38427;SDS011;24211;49.980;19.776;2023-03-01T14:30:13;22.35;;;9.18;;
38427;SDS011;24211;49.980;19.776;2023-03-01T14:32:58;19.58;;;8.98;;
38427;SDS011;24211;49.980;19.776;2023-03-01T14:35:34;21.35;;;8.68;;
38427;SDS011;24211;49.980;19.776;2023-03-01T14:38:03;29.75;;;12.05;;
38427;SDS011;24211;49.980;19.776;2023-03-01T14:40:32;19.88;;;8.55;;
38427;SDS011;24211;49.980;19.776;2023-03-01T14:43:08;25.63;;;10.35;;
38427;SDS011;24211;49.980;19.776;2023-03-01T14:45:42;25.77;;;11.18;;
38427;SDS011;24211;49.980;19.776;2023-03-01T14:48:16;19.10;;;8.48;;
38427;SDS011;24211;49.980;19.776;2023-03-01T14:50:45;22.02;;;9.95;;
38427;SDS011;24211;49.980;19.776;2023-03-01T14:53:17;20.13;;;8.35;;
38427;SDS011;24211;49.980;19.776;2023-03-01T14:55:52;18.67;;;8.10;;
38427;SDS011;24211;49.980;19.776;2023-03-01T14:58:24;18.73;;;8.47;;
38427;SDS011;24211;49.980;19.776;2023-03-01T15:00:53;17.15;;;7.47;;
38427;SDS011;24211;49.980;19.776;2023-03-01T15:03:35;17.75;;;7.57;;
38427;SDS011;24211;49.980;19.776;2023-03-01T15:06:08;29.40;;;13.05;;
38427;SDS011;24211;49.980;19.776;2023-03-01T15:08:41;20.40;;;8.48;;
38427;SDS011;24211;49.980;19.776;2023-03-01T15:13:40;25.23;;;11.23;;
38427;SDS011;24211;49.980;19.776;2023-03-01T15:16:09;18.58;;;8.23;;
38427;SDS011;24211;49.980;19.776;2023-03-01T15:18:46;19.60;;;7.95;;
38427;SDS011;24211;49.980;19.776;2023-03-01T15:21:24;30.52;;;10.95;;
38427;SDS011;24211;49.980;19.776;2023-03-01T15:26:42;22.88;;;8.68;;
38427;SDS011;24211;49.980;19.776;2023-03-01T15:29:17;18.80;;;7.93;;
38427;SDS011;24211;49.980;19.776;2023-03-01T15:34:37;17.88;;;7.80;;
38427;SDS011;24211;49.980;19.776;2023-03-01T15:37:06;18.38;;;8.43;;
38427;SDS011;24211;49.980;19.776;2023-03-01T15:40:02;24.75;;;10.73;;
38427;SDS011;24211;49.980;19.776;2023-03-01T15:42:44;23.00;;;9.38;;
38427;SDS011;24211;49.980;19.776;2023-03-01T15:47:47;20.38;;;7.90;;
38427;SDS011;24211;49.980;19.776;2023-03-01T15:50:23;23.88;;;9.05;;
38427;SDS011;24211;49.980;19.776;2023-03-01T15:52:55;24.95;;;10.20;;
38427;SDS011;24211;49.980;19.776;2023-03-01T15:55:27;27.92;;;10.93;;
38427;SDS011;24211;49.980;19.776;2023-03-01T15:58:00;21.17;;;8.57;;
38427;SDS011;24211;49.980;19.776;2023-03-01T16:00:41;17.60;;;7.63;;
38427;SDS011;24211;49.980;19.776;2023-03-01T16:03:29;18.58;;;7.28;;
38427;SDS011;24211;49.980;19.776;2023-03-01T16:05:57;19.80;;;8.05;;
38427;SDS011;24211;49.980;19.776;2023-03-01T16:08:24;16.05;;;6.78;;
38427;SDS011;24211;49.980;19.776;2023-03-01T16:10:51;18.20;;;7.85;;
38427;SDS011;24211;49.980;19.776;2023-03-01T16:13:20;18.58;;;8.45;;
38427;SDS011;24211;49.980;19.776;2023-03-01T16:15:47;23.80;;;10.27;;
38427;SDS011;24211;49.980;19.776;2023-03-01T16:18:14;25.90;;;10.35;;
38427;SDS011;24211;49.980;19.776;2023-03-01T16:20:42;23.63;;;10.25;;
38427;SDS011;24211;49.980;19.776;2023-03-01T16:23:09;19.73;;;7.78;;
38427;SDS011;24211;49.980;19.776;2023-03-01T16:25:38;34.13;;;13.25;;
38427;SDS011;24211;49.980;19.776;2023-03-01T16:28:05;35.88;;;14.15;;
38427;SDS011;24211;49.980;19.776;2023-03-01T16:30:37;21.58;;;9.05;;
38427;SDS011;24211;49.980;19.776;2023-03-01T16:33:06;22.00;;;8.48;;
38427;SDS011;24211;49.980;19.776;2023-03-01T16:35:53;21.38;;;8.70;;
38427;SDS011;24211;49.980;19.776;2023-03-01T16:38:20;19.67;;;9.18;;
38427;SDS011;24211;49.980;19.776;2023-03-01T16:40:49;22.05;;;8.93;;
38427;SDS011;24211;49.980;19.776;2023-03-01T16:43:18;19.65;;;8.43;;
38427;SDS011;24211;49.980;19.776;2023-03-01T16:45:45;17.92;;;8.75;;
38427;SDS011;24211;49.980;19.776;2023-03-01T16:48:13;18.58;;;8.38;;
38427;SDS011;24211;49.980;19.776;2023-03-01T16:50:40;23.50;;;9.68;;
38427;SDS011;24211;49.980;19.776;2023-03-01T16:53:08;35.33;;;13.90;;
38427;SDS011;24211;49.980;19.776;2023-03-01T16:55:35;25.90;;;10.45;;
38427;SDS011;24211;49.980;19.776;2023-03-01T16:58:02;44.47;;;18.45;;
38427;SDS011;24211;49.980;19.776;2023-03-01T17:00:31;29.67;;;12.68;;
38427;SDS011;24211;49.980;19.776;2023-03-01T17:02:57;31.35;;;12.50;;
38427;SDS011;24211;49.980;19.776;2023-03-01T17:05:25;33.45;;;13.27;;
38427;SDS011;24211;49.980;19.776;2023-03-01T17:07:52;32.42;;;12.80;;
38427;SDS011;24211;49.980;19.776;2023-03-01T17:10:22;31.98;;;13.48;;
38427;SDS011;24211;49.980;19.776;2023-03-01T17:12:49;37.53;;;14.50;;
38427;SDS011;24211;49.980;19.776;2023-03-01T17:15:17;32.55;;;15.02;;
38427;SDS011;24211;49.980;19.776;2023-03-01T17:17:44;31.98;;;14.50;;
38427;SDS011;24211;49.980;19.776;2023-03-01T17:20:11;32.38;;;13.27;;
38427;SDS011;24211;49.980;19.776;2023-03-01T17:22:39;32.30;;;13.82;;
38427;SDS011;24211;49.980;19.776;2023-03-01T17:25:07;30.02;;;13.00;;
38427;SDS011;24211;49.980;19.776;2023-03-01T17:27:37;33.15;;;13.18;;
38427;SDS011;24211;49.980;19.776;2023-03-01T17:30:08;30.38;;;12.73;;
38427;SDS011;24211;49.980;19.776;2023-03-01T17:32:38;32.83;;;12.73;;
38427;SDS011;24211;49.980;19.776;2023-03-01T17:35:06;28.65;;;11.65;;
38427;SDS011;24211;49.980;19.776;2023-03-01T17:37:34;28.13;;;12.10;;
38427;SDS011;24211;49.980;19.776;2023-03-01T17:40:02;33.63;;;12.55;;